Tangail, Bangladesh
Current Conditions -  °F | °C
As of 3:50 PM on Tuesday 27 Jan 2015 (Local Time) from VGHS Reporting Station
Haze Haze  
Wind Chill: 77°   Ceiling: Unl
Heat Index: 78°   Visibility: 2.5mi
Dew Point: 50°   Wind: 12mph
Humidity: 39%   Direction: 260°W
Pressure: 29.88"   Gusts: NA
Location:  24.25°N, 89.92°E
Report Text: VGHS 270950Z 26010KT 4000 HZ NSC 25/10 Q1012 NOSIG
Loading
Personal Weather Stations






























Interactive Weather Map New forecast layout! Learn more

10-Day Weather Forecast

Advertisements
Track Severe Weather on mobile